sensor_id;sensor_type;location;lat;lon;timestamp;temperature;humidity
21612;DHT22;47005;52.292;13.452;2023-01-29T00:01:29;2.90;94.70
21612;DHT22;47005;52.292;13.452;2023-01-29T00:03:56;2.80;94.70
21612;DHT22;47005;52.292;13.452;2023-01-29T00:06:21;2.80;94.80
21612;DHT22;47005;52.292;13.452;2023-01-29T00:08:50;2.90;94.80
21612;DHT22;47005;52.292;13.452;2023-01-29T00:11:16;2.80;94.80
21612;DHT22;47005;52.292;13.452;2023-01-29T00:13:42;2.80;94.80
21612;DHT22;47005;52.292;13.452;2023-01-29T00:16:08;2.80;94.90
21612;DHT22;47005;52.292;13.452;2023-01-29T00:18:37;2.80;94.90
21612;DHT22;47005;52.292;13.452;2023-01-29T00:21:07;2.80;94.90
21612;DHT22;47005;52.292;13.452;2023-01-29T00:23:33;2.80;95.00
21612;DHT22;47005;52.292;13.452;2023-01-29T00:25:59;2.80;95.10
21612;DHT22;47005;52.292;13.452;2023-01-29T00:28:24;2.80;95.10
21612;DHT22;47005;52.292;13.452;2023-01-29T00:30:50;2.80;95.20
21612;DHT22;47005;52.292;13.452;2023-01-29T00:33:15;2.80;95.20
21612;DHT22;47005;52.292;13.452;2023-01-29T00:35:41;2.80;95.30
21612;DHT22;47005;52.292;13.452;2023-01-29T00:38:07;2.80;95.30
21612;DHT22;47005;52.292;13.452;2023-01-29T00:40:32;2.80;95.20
21612;DHT22;47005;52.292;13.452;2023-01-29T00:43:21;2.80;95.30
21612;DHT22;47005;52.292;13.452;2023-01-29T00:46:05;2.80;95.30
21612;DHT22;47005;52.292;13.452;2023-01-29T00:48:31;2.80;95.30
21612;DHT22;47005;52.292;13.452;2023-01-29T00:50:57;2.80;95.20
21612;DHT22;47005;52.292;13.452;2023-01-29T00:53:23;2.80;95.20
21612;DHT22;47005;52.292;13.452;2023-01-29T00:55:48;2.80;95.40
21612;DHT22;47005;52.292;13.452;2023-01-29T00:58:14;2.80;95.40
21612;DHT22;47005;52.292;13.452;2023-01-29T01:00:47;2.80;95.40
21612;DHT22;47005;52.292;13.452;2023-01-29T01:03:13;2.80;95.50
21612;DHT22;47005;52.292;13.452;2023-01-29T01:05:39;2.80;95.60
21612;DHT22;47005;52.292;13.452;2023-01-29T01:08:07;2.80;95.60
21612;DHT22;47005;52.292;13.452;2023-01-29T01:11:04;2.70;95.70
21612;DHT22;47005;52.292;13.452;2023-01-29T01:13:31;2.80;95.70
21612;DHT22;47005;52.292;13.452;2023-01-29T01:15:57;2.70;95.70
21612;DHT22;47005;52.292;13.452;2023-01-29T01:18:23;2.80;96.10
21612;DHT22;47005;52.292;13.452;2023-01-29T01:20:49;2.70;95.80
21612;DHT22;47005;52.292;13.452;2023-01-29T01:23:17;2.70;95.80
21612;DHT22;47005;52.292;13.452;2023-01-29T01:25:43;2.70;96.20
21612;DHT22;47005;52.292;13.452;2023-01-29T01:28:09;2.70;95.80
21612;DHT22;47005;52.292;13.452;2023-01-29T01:30:35;2.70;95.80
21612;DHT22;47005;52.292;13.452;2023-01-29T01:33:01;2.70;95.80
21612;DHT22;47005;52.292;13.452;2023-01-29T01:35:27;2.70;95.90
21612;DHT22;47005;52.292;13.452;2023-01-29T01:37:52;2.70;95.90
21612;DHT22;47005;52.292;13.452;2023-01-29T01:40:20;2.70;96.00
21612;DHT22;47005;52.292;13.452;2023-01-29T01:42:48;2.70;95.90
21612;DHT22;47005;52.292;13.452;2023-01-29T01:45:35;2.70;96.00
21612;DHT22;47005;52.292;13.452;2023-01-29T01:48:24;2.60;96.00
21612;DHT22;47005;52.292;13.452;2023-01-29T01:51:01;2.70;96.10
21612;DHT22;47005;52.292;13.452;2023-01-29T01:53:35;2.70;96.10
21612;DHT22;47005;52.292;13.452;2023-01-29T01:56:09;2.60;96.10
21612;DHT22;47005;52.292;13.452;2023-01-29T01:58:49;2.70;96.10
21612;DHT22;47005;52.292;13.452;2023-01-29T02:01:17;2.70;96.10
21612;DHT22;47005;52.292;13.452;2023-01-29T02:03:49;2.70;96.20
21612;DHT22;47005;52.292;13.452;2023-01-29T02:06:38;2.60;96.20
21612;DHT22;47005;52.292;13.452;2023-01-29T02:09:38;2.70;96.40
21612;DHT22;47005;52.292;13.452;2023-01-29T02:12:09;2.70;96.40
21612;DHT22;47005;52.292;13.452;2023-01-29T02:14:36;2.70;96.30
21612;DHT22;47005;52.292;13.452;2023-01-29T02:17:05;2.70;96.30
21612;DHT22;47005;52.292;13.452;2023-01-29T02:28:06;2.70;96.40
21612;DHT22;47005;52.292;13.452;2023-01-29T02:41:34;2.70;96.50
21612;DHT22;47005;52.292;13.452;2023-01-29T02:44:34;2.70;96.60
21612;DHT22;47005;52.292;13.452;2023-01-29T02:49:58;2.60;96.60
21612;DHT22;47005;52.292;13.452;2023-01-29T02:52:44;2.60;96.80
21612;DHT22;47005;52.292;13.452;2023-01-29T02:55:23;2.60;96.70
21612;DHT22;47005;52.292;13.452;2023-01-29T02:57:53;2.60;96.70
21612;DHT22;47005;52.292;13.452;2023-01-29T03:00:23;2.70;96.80
21612;DHT22;47005;52.292;13.452;2023-01-29T03:06:17;2.70;96.70
21612;DHT22;47005;52.292;13.452;2023-01-29T03:08:24;2.70;96.70
21612;DHT22;47005;52.292;13.452;2023-01-29T03:11:05;2.70;96.70
21612;DHT22;47005;52.292;13.452;2023-01-29T03:16:16;2.70;96.80
21612;DHT22;47005;52.292;13.452;2023-01-29T03:18:54;2.70;96.80
21612;DHT22;47005;52.292;13.452;2023-01-29T03:21:34;2.70;96.60
21612;DHT22;47005;52.292;13.452;2023-01-29T03:24:47;2.70;96.70
21612;DHT22;47005;52.292;13.452;2023-01-29T03:27:43;2.70;96.60
21612;DHT22;47005;52.292;13.452;2023-01-29T03:30:29;2.70;96.60
21612;DHT22;47005;52.292;13.452;2023-01-29T03:33:15;2.70;96.70
21612;DHT22;47005;52.292;13.452;2023-01-29T03:35:51;2.70;96.80
21612;DHT22;47005;52.292;13.452;2023-01-29T03:38:18;2.70;96.90
21612;DHT22;47005;52.292;13.452;2023-01-29T03:40:55;2.70;96.90
21612;DHT22;47005;52.292;13.452;2023-01-29T03:43:43;2.70;97.00
21612;DHT22;47005;52.292;13.452;2023-01-29T03:46:22;2.70;96.90
21612;DHT22;47005;52.292;13.452;2023-01-29T03:49:02;2.70;96.80
21612;DHT22;47005;52.292;13.452;2023-01-29T03:51:37;2.60;97.00
21612;DHT22;47005;52.292;13.452;2023-01-29T03:54:38;2.60;97.10
21612;DHT22;47005;52.292;13.452;2023-01-29T04:00:16;2.70;97.40
21612;DHT22;47005;52.292;13.452;2023-01-29T04:03:18;2.70;97.00
21612;DHT22;47005;52.292;13.452;2023-01-29T04:05:55;2.70;97.00
21612;DHT22;47005;52.292;13.452;2023-01-29T04:08:31;2.70;97.00
21612;DHT22;47005;52.292;13.452;2023-01-29T04:11:02;2.70;97.00
21612;DHT22;47005;52.292;13.452;2023-01-29T04:13:30;2.70;97.00
21612;DHT22;47005;52.292;13.452;2023-01-29T04:15:59;2.70;97.00
21612;DHT22;47005;52.292;13.452;2023-01-29T04:18:26;2.70;96.90
21612;DHT22;47005;52.292;13.452;2023-01-29T04:20:52;2.70;97.00
21612;DHT22;47005;52.292;13.452;2023-01-29T04:23:20;2.70;97.00
21612;DHT22;47005;52.292;13.452;2023-01-29T04:28:33;2.70;97.00
21612;DHT22;47005;52.292;13.452;2023-01-29T04:31:07;2.70;97.10
21612;DHT22;47005;52.292;13.452;2023-01-29T04:36:40;2.70;97.20
21612;DHT22;47005;52.292;13.452;2023-01-29T04:41:37;2.70;97.20
21612;DHT22;47005;52.292;13.452;2023-01-29T04:49:44;2.70;97.30
21612;DHT22;47005;52.292;13.452;2023-01-29T04:58:02;2.70;97.40
21612;DHT22;47005;52.292;13.452;2023-01-29T05:00:33;2.70;97.50
21612;DHT22;47005;52.292;13.452;2023-01-29T05:03:00;2.70;97.50
21612;DHT22;47005;52.292;13.452;2023-01-29T05:05:27;2.70;97.50
21612;DHT22;47005;52.292;13.452;2023-01-29T05:07:54;2.70;97.60
21612;DHT22;47005;52.292;13.452;2023-01-29T05:10:22;2.80;97.60
21612;DHT22;47005;52.292;13.452;2023-01-29T05:12:57;2.70;97.70
21612;DHT22;47005;52.292;13.452;2023-01-29T05:15:37;2.80;97.70
21612;DHT22;47005;52.292;13.452;2023-01-29T05:18:04;2.80;97.70
21612;DHT22;47005;52.292;13.452;2023-01-29T05:20:34;2.80;97.70
21612;DHT22;47005;52.292;13.452;2023-01-29T05:23:01;2.80;97.80
21612;DHT22;47005;52.292;13.452;2023-01-29T05:25:29;2.90;97.80
21612;DHT22;47005;52.292;13.452;2023-01-29T05:27:55;2.90;97.90
21612;DHT22;47005;52.292;13.452;2023-01-29T05:30:36;2.90;97.90
21612;DHT22;47005;52.292;13.452;2023-01-29T05:33:03;2.90;97.90
21612;DHT22;47005;52.292;13.452;2023-01-29T05:35:30;2.90;97.90
21612;DHT22;47005;52.292;13.452;2023-01-29T05:37:56;2.90;98.00
21612;DHT22;47005;52.292;13.452;2023-01-29T05:40:22;2.90;98.10
21612;DHT22;47005;52.292;13.452;2023-01-29T05:42:49;2.90;98.10
21612;DHT22;47005;52.292;13.452;2023-01-29T05:45:16;2.90;98.30
21612;DHT22;47005;52.292;13.452;2023-01-29T05:47:42;2.90;98.30
21612;DHT22;47005;52.292;13.452;2023-01-29T05:50:08;2.90;98.40
21612;DHT22;47005;52.292;13.452;2023-01-29T05:52:33;2.90;98.40
21612;DHT22;47005;52.292;13.452;2023-01-29T05:54:59;3.00;98.50
21612;DHT22;47005;52.292;13.452;2023-01-29T05:57:24;2.90;98.40
21612;DHT22;47005;52.292;13.452;2023-01-29T05:59:50;2.90;98.50
21612;DHT22;47005;52.292;13.452;2023-01-29T06:02:16;2.90;98.50
21612;DHT22;47005;52.292;13.452;2023-01-29T06:04:41;2.90;98.70
21612;DHT22;47005;52.292;13.452;2023-01-29T06:07:07;2.90;98.90
21612;DHT22;47005;52.292;13.452;2023-01-29T06:09:32;3.00;98.90
21612;DHT22;47005;52.292;13.452;2023-01-29T06:11:58;3.00;99.10
21612;DHT22;47005;52.292;13.452;2023-01-29T06:14:24;3.00;99.30
21612;DHT22;47005;52.292;13.452;2023-01-29T06:16:49;3.00;99.70
21612;DHT22;47005;52.292;13.452;2023-01-29T06:19:15;3.00;99.90
21612;DHT22;47005;52.292;13.452;2023-01-29T06:21:42;2.90;99.90
21612;DHT22;47005;52.292;13.452;2023-01-29T06:24:08;2.90;99.90
21612;DHT22;47005;52.292;13.452;2023-01-29T06:26:33;2.90;99.90
21612;DHT22;47005;52.292;13.452;2023-01-29T06:28:59;2.90;99.90
21612;DHT22;47005;52.292;13.452;2023-01-29T06:31:25;2.90;99.90
21612;DHT22;47005;52.292;13.452;2023-01-29T06:33:50;2.90;99.90
21612;DHT22;47005;52.292;13.452;2023-01-29T06:36:16;2.90;99.90
21612;DHT22;47005;52.292;13.452;2023-01-29T06:38:41;2.90;99.90
21612;DHT22;47005;52.292;13.452;2023-01-29T06:41:09;2.90;99.90
21612;DHT22;47005;52.292;13.452;2023-01-29T06:43:36;2.90;99.90
21612;DHT22;47005;52.292;13.452;2023-01-29T06:46:01;2.90;99.90
21612;DHT22;47005;52.292;13.452;2023-01-29T06:48:27;2.80;99.90
21612;DHT22;47005;52.292;13.452;2023-01-29T06:50:52;2.90;99.90
21612;DHT22;47005;52.292;13.452;2023-01-29T06:53:20;2.90;99.90
21612;DHT22;47005;52.292;13.452;2023-01-29T06:55:51;2.80;99.90
21612;DHT22;47005;52.292;13.452;2023-01-29T06:58:17;2.80;99.90
21612;DHT22;47005;52.292;13.452;2023-01-29T07:00:43;2.80;99.90
21612;DHT22;47005;52.292;13.452;2023-01-29T07:03:09;2.80;99.90
21612;DHT22;47005;52.292;13.452;2023-01-29T07:05:35;2.80;99.90
21612;DHT22;47005;52.292;13.452;2023-01-29T07:08:01;2.80;99.90
21612;DHT22;47005;52.292;13.452;2023-01-29T07:10:27;2.80;99.90
21612;DHT22;47005;52.292;13.452;2023-01-29T07:12:52;2.80;99.90
21612;DHT22;47005;52.292;13.452;2023-01-29T07:15:18;2.90;99.90
21612;DHT22;47005;52.292;13.452;2023-01-29T07:18:02;2.90;99.90
21612;DHT22;47005;52.292;13.452;2023-01-29T07:20:39;2.80;99.90
21612;DHT22;47005;52.292;13.452;2023-01-29T07:23:06;2.80;99.90
21612;DHT22;47005;52.292;13.452;2023-01-29T07:25:32;2.80;99.90
21612;DHT22;47005;52.292;13.452;2023-01-29T07:28:01;2.80;99.90
21612;DHT22;47005;52.292;13.452;2023-01-29T07:30:27;2.80;99.90
21612;DHT22;47005;52.292;13.452;2023-01-29T07:32:52;2.80;99.90
21612;DHT22;47005;52.292;13.452;2023-01-29T07:35:18;2.70;99.90
21612;DHT22;47005;52.292;13.452;2023-01-29T07:37:43;2.80;99.90
21612;DHT22;47005;52.292;13.452;2023-01-29T07:40:09;2.80;99.90
21612;DHT22;47005;52.292;13.452;2023-01-29T07:42:37;2.80;99.90
21612;DHT22;47005;52.292;13.452;2023-01-29T07:45:05;2.80;99.90
21612;DHT22;47005;52.292;13.452;2023-01-29T07:47:30;2.80;99.90
21612;DHT22;47005;52.292;13.452;2023-01-29T07:49:56;2.90;99.90
21612;DHT22;47005;52.292;13.452;2023-01-29T07:52:22;2.90;99.90
21612;DHT22;47005;52.292;13.452;2023-01-29T07:54:47;2.90;99.90
21612;DHT22;47005;52.292;13.452;2023-01-29T07:57:13;2.90;99.90
21612;DHT22;47005;52.292;13.452;2023-01-29T07:59:38;2.90;99.90
21612;DHT22;47005;52.292;13.452;2023-01-29T08:02:04;2.90;99.90
21612;DHT22;47005;52.292;13.452;2023-01-29T08:04:30;2.90;99.90
21612;DHT22;47005;52.292;13.452;2023-01-29T08:06:55;2.90;99.90
21612;DHT22;47005;52.292;13.452;2023-01-29T08:09:21;2.90;99.90
21612;DHT22;47005;52.292;13.452;2023-01-29T08:11:46;2.90;99.90
21612;DHT22;47005;52.292;13.452;2023-01-29T08:14:12;2.90;99.90
21612;DHT22;47005;52.292;13.452;2023-01-29T08:16:37;2.90;99.90
21612;DHT22;47005;52.292;13.452;2023-01-29T08:19:03;3.00;99.90
21612;DHT22;47005;52.292;13.452;2023-01-29T08:21:29;3.00;99.90
21612;DHT22;47005;52.292;13.452;2023-01-29T08:23:54;3.00;99.90
21612;DHT22;47005;52.292;13.452;2023-01-29T08:26:20;3.00;99.90
21612;DHT22;47005;52.292;13.452;2023-01-29T08:28:45;2.90;99.90
21612;DHT22;47005;52.292;13.452;2023-01-29T08:31:15;3.00;99.90
21612;DHT22;47005;52.292;13.452;2023-01-29T08:33:41;2.90;99.90
21612;DHT22;47005;52.292;13.452;2023-01-29T08:36:08;2.90;99.90
21612;DHT22;47005;52.292;13.452;2023-01-29T08:38:34;2.90;99.90
21612;DHT22;47005;52.292;13.452;2023-01-29T08:40:59;2.90;99.90
21612;DHT22;47005;52.292;13.452;2023-01-29T08:43:25;2.90;99.90
21612;DHT22;47005;52.292;13.452;2023-01-29T08:45:51;2.90;99.90
21612;DHT22;47005;52.292;13.452;2023-01-29T08:48:16;3.10;99.90
21612;DHT22;47005;52.292;13.452;2023-01-29T08:50:42;3.00;99.90
21612;DHT22;47005;52.292;13.452;2023-01-29T08:53:08;3.00;99.90
21612;DHT22;47005;52.292;13.452;2023-01-29T08:55:38;3.00;99.90
21612;DHT22;47005;52.292;13.452;2023-01-29T08:58:05;3.00;99.90
21612;DHT22;47005;52.292;13.452;2023-01-29T09:00:33;3.00;99.90
21612;DHT22;47005;52.292;13.452;2023-01-29T09:02:59;3.00;99.90
21612;DHT22;47005;52.292;13.452;2023-01-29T09:05:26;3.00;99.90
21612;DHT22;47005;52.292;13.452;2023-01-29T09:07:52;3.00;99.90
21612;DHT22;47005;52.292;13.452;2023-01-29T09:10:18;3.00;99.90
21612;DHT22;47005;52.292;13.452;2023-01-29T09:12:44;3.00;99.90
21612;DHT22;47005;52.292;13.452;2023-01-29T09:15:10;3.00;99.90
21612;DHT22;47005;52.292;13.452;2023-01-29T09:17:35;3.10;99.90
21612;DHT22;47005;52.292;13.452;2023-01-29T09:20:01;3.10;99.90
21612;DHT22;47005;52.292;13.452;2023-01-29T09:22:27;3.10;99.90
21612;DHT22;47005;52.292;13.452;2023-01-29T09:24:52;3.10;99.90
21612;DHT22;47005;52.292;13.452;2023-01-29T09:27:18;3.10;99.90
21612;DHT22;47005;52.292;13.452;2023-01-29T09:29:44;3.10;99.90
21612;DHT22;47005;52.292;13.452;2023-01-29T09:32:09;3.10;99.90
21612;DHT22;47005;52.292;13.452;2023-01-29T09:34:35;3.20;99.90
21612;DHT22;47005;52.292;13.452;2023-01-29T09:37:01;3.20;99.90
21612;DHT22;47005;52.292;13.452;2023-01-29T09:39:26;3.20;99.90
21612;DHT22;47005;52.292;13.452;2023-01-29T09:44:48;3.20;99.90
21612;DHT22;47005;52.292;13.452;2023-01-29T09:47:17;3.20;99.90
21612;DHT22;47005;52.292;13.452;2023-01-29T09:49:46;3.30;99.90
21612;DHT22;47005;52.292;13.452;2023-01-29T09:55:33;3.40;99.90
21612;DHT22;47005;52.292;13.452;2023-01-29T09:57:47;3.30;99.90
21612;DHT22;47005;52.292;13.452;2023-01-29T10:00:24;3.40;99.90
21612;DHT22;47005;52.292;13.452;2023-01-29T10:09:28;3.50;99.90
21612;DHT22;47005;52.292;13.452;2023-01-29T10:12:34;3.50;99.90
21612;DHT22;47005;52.292;13.452;2023-01-29T10:15:27;3.50;99.90
21612;DHT22;47005;52.292;13.452;2023-01-29T10:23:15;3.60;99.90
21612;DHT22;47005;52.292;13.452;2023-01-29T10:25:44;3.60;99.90
21612;DHT22;47005;52.292;13.452;2023-01-29T10:28:21;3.60;99.90
21612;DHT22;47005;52.292;13.452;2023-01-29T10:30:55;3.60;99.90
21612;DHT22;47005;52.292;13.452;2023-01-29T10:33:38;3.70;99.90
21612;DHT22;47005;52.292;13.452;2023-01-29T10:36:08;3.70;99.90
21612;DHT22;47005;52.292;13.452;2023-01-29T10:38:49;3.60;99.90
21612;DHT22;47005;52.292;13.452;2023-01-29T10:41:43;3.70;99.90
21612;DHT22;47005;52.292;13.452;2023-01-29T10:49:56;3.70;99.90
21612;DHT22;47005;52.292;13.452;2023-01-29T10:58:29;3.80;99.90
21612;DHT22;47005;52.292;13.452;2023-01-29T11:00:40;3.90;99.90
21612;DHT22;47005;52.292;13.452;2023-01-29T11:03:23;3.90;99.90
21612;DHT22;47005;52.292;13.452;2023-01-29T11:06:27;3.90;99.90
21612;DHT22;47005;52.292;13.452;2023-01-29T11:12:00;4.00;99.90
21612;DHT22;47005;52.292;13.452;2023-01-29T11:14:41;4.10;99.90
21612;DHT22;47005;52.292;13.452;2023-01-29T11:17:20;4.10;99.90
21612;DHT22;47005;52.292;13.452;2023-01-29T11:19:48;4.20;99.90
21612;DHT22;47005;52.292;13.452;2023-01-29T11:22:25;4.20;99.90
21612;DHT22;47005;52.292;13.452;2023-01-29T11:25:16;4.20;99.90
21612;DHT22;47005;52.292;13.452;2023-01-29T11:27:56;4.30;99.90
21612;DHT22;47005;52.292;13.452;2023-01-29T11:33:21;4.30;99.90
21612;DHT22;47005;52.292;13.452;2023-01-29T11:35:48;4.30;99.90
21612;DHT22;47005;52.292;13.452;2023-01-29T11:38:24;4.30;99.90
21612;DHT22;47005;52.292;13.452;2023-01-29T11:40:51;4.30;99.90
21612;DHT22;47005;52.292;13.452;2023-01-29T11:43:27;4.40;99.90
21612;DHT22;47005;52.292;13.452;2023-01-29T11:46:03;4.40;99.90
21612;DHT22;47005;52.292;13.452;2023-01-29T11:48:42;4.40;99.90
21612;DHT22;47005;52.292;13.452;2023-01-29T11:51:11;4.40;99.90
21612;DHT22;47005;52.292;13.452;2023-01-29T11:53:50;4.40;99.90
21612;DHT22;47005;52.292;13.452;2023-01-29T11:56:34;4.40;99.90
21612;DHT22;47005;52.292;13.452;2023-01-29T11:59:04;4.50;99.90
21612;DHT22;47005;52.292;13.452;2023-01-29T12:01:35;4.50;99.90
21612;DHT22;47005;52.292;13.452;2023-01-29T12:04:09;4.50;99.90
21612;DHT22;47005;52.292;13.452;2023-01-29T12:06:43;4.50;99.90
21612;DHT22;47005;52.292;13.452;2023-01-29T12:09:13;4.60;99.90
21612;DHT22;47005;52.292;13.452;2023-01-29T12:11:40;4.60;99.90
21612;DHT22;47005;52.292;13.452;2023-01-29T12:14:29;4.60;99.90
21612;DHT22;47005;52.292;13.452;2023-01-29T12:17:05;4.70;99.90
21612;DHT22;47005;52.292;13.452;2023-01-29T12:22:14;4.70;99.90
21612;DHT22;47005;52.292;13.452;2023-01-29T12:24:55;4.80;99.90
21612;DHT22;47005;52.292;13.452;2023-01-29T12:27:35;4.80;99.90
21612;DHT22;47005;52.292;13.452;2023-01-29T12:38:06;4.80;99.90
21612;DHT22;47005;52.292;13.452;2023-01-29T12:40:41;4.80;99.90
21612;DHT22;47005;52.292;13.452;2023-01-29T12:43:41;4.80;99.90
21612;DHT22;47005;52.292;13.452;2023-01-29T12:46:06;4.80;99.90
21612;DHT22;47005;52.292;13.452;2023-01-29T12:48:34;4.80;99.90
21612;DHT22;47005;52.292;13.452;2023-01-29T12:51:30;4.80;99.90
21612;DHT22;47005;52.292;13.452;2023-01-29T12:54:25;4.90;99.90
21612;DHT22;47005;52.292;13.452;2023-01-29T12:56:55;4.80;99.90
21612;DHT22;47005;52.292;13.452;2023-01-29T12:59:38;4.90;99.90
21612;DHT22;47005;52.292;13.452;2023-01-29T13:05:08;4.90;99.90
21612;DHT22;47005;52.292;13.452;2023-01-29T13:07:46;4.90;99.90
21612;DHT22;47005;52.292;13.452;2023-01-29T13:10:17;4.90;99.90
21612;DHT22;47005;52.292;13.452;2023-01-29T13:13:13;4.90;99.90
21612;DHT22;47005;52.292;13.452;2023-01-29T13:15:38;4.90;99.90
21612;DHT22;47005;52.292;13.452;2023-01-29T13:20:55;4.90;99.90
21612;DHT22;47005;52.292;13.452;2023-01-29T13:23:27;4.90;99.90
21612;DHT22;47005;52.292;13.452;2023-01-29T13:25:54;4.90;99.90
21612;DHT22;47005;52.292;13.452;2023-01-29T13:28:23;4.90;99.90
21612;DHT22;47005;52.292;13.452;2023-01-29T13:31:12;5.00;99.90
21612;DHT22;47005;52.292;13.452;2023-01-29T13:33:41;4.90;99.90
21612;DHT22;47005;52.292;13.452;2023-01-29T13:36:15;4.90;99.90
21612;DHT22;47005;52.292;13.452;2023-01-29T13:38:42;4.90;99.90
21612;DHT22;47005;52.292;13.452;2023-01-29T13:41:09;4.90;99.90
21612;DHT22;47005;52.292;13.452;2023-01-29T13:43:40;4.90;99.90
21612;DHT22;47005;52.292;13.452;2023-01-29T13:46:12;4.90;99.90
21612;DHT22;47005;52.292;13.452;2023-01-29T13:48:43;4.90;99.90
21612;DHT22;47005;52.292;13.452;2023-01-29T13:51:14;4.90;99.90
21612;DHT22;47005;52.292;13.452;2023-01-29T13:53:52;4.90;99.90
21612;DHT22;47005;52.292;13.452;2023-01-29T13:58:59;4.90;99.90
21612;DHT22;47005;52.292;13.452;2023-01-29T14:06:51;5.00;99.90
21612;DHT22;47005;52.292;13.452;2023-01-29T14:12:36;4.90;99.90
21612;DHT22;47005;52.292;13.452;2023-01-29T14:18:16;4.90;99.90
21612;DHT22;47005;52.292;13.452;2023-01-29T14:25:46;4.80;99.90
21612;DHT22;47005;52.292;13.452;2023-01-29T14:28:20;4.80;99.90
21612;DHT22;47005;52.292;13.452;2023-01-29T14:30:47;4.70;99.90
21612;DHT22;47005;52.292;13.452;2023-01-29T14:33:39;4.70;99.90
21612;DHT22;47005;52.292;13.452;2023-01-29T14:36:09;4.70;99.90
21612;DHT22;47005;52.292;13.452;2023-01-29T14:38:35;4.70;99.90
21612;DHT22;47005;52.292;13.452;2023-01-29T14:41:11;4.70;99.90
21612;DHT22;47005;52.292;13.452;2023-01-29T14:43:38;4.70;99.90
21612;DHT22;47005;52.292;13.452;2023-01-29T14:46:42;4.70;99.90
21612;DHT22;47005;52.292;13.452;2023-01-29T14:49:08;4.70;99.90
21612;DHT22;47005;52.292;13.452;2023-01-29T14:51:37;4.60;99.90
21612;DHT22;47005;52.292;13.452;2023-01-29T14:54:20;4.60;99.90
21612;DHT22;47005;52.292;13.452;2023-01-29T14:56:58;4.60;99.90
21612;DHT22;47005;52.292;13.452;2023-01-29T14:59:32;4.60;99.90
21612;DHT22;47005;52.292;13.452;2023-01-29T15:02:03;4.60;99.90
21612;DHT22;47005;52.292;13.452;2023-01-29T15:04:39;4.60;99.90
21612;DHT22;47005;52.292;13.452;2023-01-29T15:09:58;4.60;99.90
21612;DHT22;47005;52.292;13.452;2023-01-29T15:20:36;4.60;99.90
21612;DHT22;47005;52.292;13.452;2023-01-29T15:23:03;4.60;99.90
21612;DHT22;47005;52.292;13.452;2023-01-29T15:25:36;4.50;99.90
21612;DHT22;47005;52.292;13.452;2023-01-29T15:28:03;4.60;99.90
21612;DHT22;47005;52.292;13.452;2023-01-29T15:30:35;4.50;99.90
21612;DHT22;47005;52.292;13.452;2023-01-29T15:33:02;4.50;99.90
21612;DHT22;47005;52.292;13.452;2023-01-29T15:35:36;4.50;99.90
21612;DHT22;47005;52.292;13.452;2023-01-29T15:38:11;4.50;99.90
21612;DHT22;47005;52.292;13.452;2023-01-29T15:40:39;4.50;99.90
21612;DHT22;47005;52.292;13.452;2023-01-29T15:43:23;4.50;99.90
21612;DHT22;47005;52.292;13.452;2023-01-29T15:45:50;4.50;99.90
21612;DHT22;47005;52.292;13.452;2023-01-29T15:48:19;4.50;99.90
21612;DHT22;47005;52.292;13.452;2023-01-29T15:50:53;4.50;99.90
21612;DHT22;47005;52.292;13.452;2023-01-29T15:53:28;4.50;99.90
21612;DHT22;47005;52.292;13.452;2023-01-29T15:55:55;4.40;99.90
21612;DHT22;47005;52.292;13.452;2023-01-29T15:58:28;4.40;99.90
21612;DHT22;47005;52.292;13.452;2023-01-29T16:00:55;4.40;99.90
21612;DHT22;47005;52.292;13.452;2023-01-29T16:03:23;4.40;99.90
21612;DHT22;47005;52.292;13.452;2023-01-29T16:05:51;4.40;99.90
21612;DHT22;47005;52.292;13.452;2023-01-29T16:08:17;4.40;99.90
21612;DHT22;47005;52.292;13.452;2023-01-29T16:10:51;4.40;99.90
21612;DHT22;47005;52.292;13.452;2023-01-29T16:13:23;4.40;99.90
21612;DHT22;47005;52.292;13.452;2023-01-29T16:18:36;4.40;99.90
21612;DHT22;47005;52.292;13.452;2023-01-29T16:21:09;4.40;99.90
21612;DHT22;47005;52.292;13.452;2023-01-29T16:23:48;4.40;99.90
21612;DHT22;47005;52.292;13.452;2023-01-29T16:26:21;4.40;99.90
21612;DHT22;47005;52.292;13.452;2023-01-29T16:28:48;4.40;99.90
21612;DHT22;47005;52.292;13.452;2023-01-29T16:31:21;4.40;99.90
21612;DHT22;47005;52.292;13.452;2023-01-29T16:33:48;4.40;99.90
21612;DHT22;47005;52.292;13.452;2023-01-29T16:36:19;4.30;99.90
21612;DHT22;47005;52.292;13.452;2023-01-29T16:38:47;4.40;99.90
21612;DHT22;47005;52.292;13.452;2023-01-29T16:46:37;4.30;99.90
21612;DHT22;47005;52.292;13.452;2023-01-29T16:51:50;4.40;99.90
21612;DHT22;47005;52.292;13.452;2023-01-29T16:54:16;4.30;99.90
21612;DHT22;47005;52.292;13.452;2023-01-29T16:56:49;4.40;99.90
21612;DHT22;47005;52.292;13.452;2023-01-29T16:59:22;4.30;99.90
21612;DHT22;47005;52.292;13.452;2023-01-29T17:01:55;4.30;99.90
21612;DHT22;47005;52.292;13.452;2023-01-29T17:04:21;4.40;99.90
21612;DHT22;47005;52.292;13.452;2023-01-29T17:06:48;4.40;99.90
21612;DHT22;47005;52.292;13.452;2023-01-29T17:11:55;4.30;99.90
21612;DHT22;47005;52.292;13.452;2023-01-29T17:14:23;4.30;99.90
21612;DHT22;47005;52.292;13.452;2023-01-29T17:17:15;4.30;99.90
21612;DHT22;47005;52.292;13.452;2023-01-29T17:19:40;4.30;99.90
21612;DHT22;47005;52.292;13.452;2023-01-29T17:22:06;4.40;99.90
21612;DHT22;47005;52.292;13.452;2023-01-29T17:24:41;4.40;99.90
21612;DHT22;47005;52.292;13.452;2023-01-29T17:27:15;4.40;99.90
21612;DHT22;47005;52.292;13.452;2023-01-29T17:29:42;4.40;99.90
21612;DHT22;47005;52.292;13.452;2023-01-29T17:32:08;4.40;99.90
21612;DHT22;47005;52.292;13.452;2023-01-29T17:34:34;4.40;99.90
21612;DHT22;47005;52.292;13.452;2023-01-29T17:37:00;4.40;99.90
21612;DHT22;47005;52.292;13.452;2023-01-29T17:39:25;4.40;99.90
21612;DHT22;47005;52.292;13.452;2023-01-29T17:41:53;4.50;99.90
21612;DHT22;47005;52.292;13.452;2023-01-29T17:44:20;4.40;99.90
21612;DHT22;47005;52.292;13.452;2023-01-29T17:46:46;4.40;99.90
21612;DHT22;47005;52.292;13.452;2023-01-29T17:49:25;4.40;99.90
21612;DHT22;47005;52.292;13.452;2023-01-29T17:51:52;4.40;99.90
21612;DHT22;47005;52.292;13.452;2023-01-29T17:54:18;4.40;99.90
21612;DHT22;47005;52.292;13.452;2023-01-29T17:56:44;4.40;99.90
21612;DHT22;47005;52.292;13.452;2023-01-29T17:59:14;4.50;99.90
21612;DHT22;47005;52.292;13.452;2023-01-29T18:01:40;4.50;99.90
21612;DHT22;47005;52.292;13.452;2023-01-29T18:04:06;4.40;99.90
21612;DHT22;47005;52.292;13.452;2023-01-29T18:06:33;4.50;99.90
21612;DHT22;47005;52.292;13.452;2023-01-29T18:08:59;4.50;99.90
21612;DHT22;47005;52.292;13.452;2023-01-29T18:11:25;4.40;99.90
21612;DHT22;47005;52.292;13.452;2023-01-29T18:13:51;4.40;99.90
21612;DHT22;47005;52.292;13.452;2023-01-29T18:16:17;4.40;99.90
21612;DHT22;47005;52.292;13.452;2023-01-29T18:18:42;4.50;99.90
21612;DHT22;47005;52.292;13.452;2023-01-29T18:21:08;4.40;99.90